Time;durP1;ratioP1;P1;durP2;ratioP2;P2;SDS_P1;SDS_P2;PMS_P1;PMS_P2;Temp;Humidity;BMP_temperature;BMP_pressure;BME280_temperature;BME280_humidity;BME280_pressure;Samples;Min_cycle;Max_cycle;Signal;HPM_P1;HPM_P2
2022/05/19 00:02:13;;;;;;;8.05;2.80;;;;;;;;;;5039000;28;20420;-52
2022/05/19 00:04:47;;;;;;;11.90;3.35;;;;;;;;;;5041369;28;20504;-55
2022/05/19 00:07:14;;;;;;;5.97;2.67;;;;;;;;;;5042412;28;20045;-50
2022/05/19 00:09:40;;;;;;;6.23;3.40;;;;;;;;;;5040159;28;20870;-53
2022/05/19 00:12:15;;;;;;;7.43;2.92;;;;;;;;;;5038693;28;20354;-51
2022/05/19 00:14:41;;;;;;;7.95;3.25;;;;;;;;;;5040034;28;20131;-56
2022/05/19 00:17:08;;;;;;;5.78;2.85;;;;;;;;;;5038325;28;20480;-55
2022/05/19 00:19:41;;;;;;;7.60;2.97;;;;;;;;;;5037697;28;20057;-55
2022/05/19 00:22:07;;;;;;;9.75;3.30;;;;;;;;;;5038284;28;20069;-52
2022/05/19 00:24:34;;;;;;;7.05;3.15;;;;;;;;;;5042538;28;20045;-52
2022/05/19 00:27:12;;;;;;;4.43;2.70;;;;;;;;;;5038976;28;20060;-54
2022/05/19 00:29:39;;;;;;;5.47;2.90;;;;;;;;;;5042131;28;20080;-54
2022/05/19 00:32:05;;;;;;;5.15;2.83;;;;;;;;;;5041275;28;20140;-56
2022/05/19 00:34:45;;;;;;;8.40;3.28;;;;;;;;;;5040943;28;20076;-54
2022/05/19 00:37:12;;;;;;;7.00;3.17;;;;;;;;;;5038923;28;20284;-53
2022/05/19 00:39:38;;;;;;;7.65;3.10;;;;;;;;;;5038082;28;20145;-52
2022/05/19 00:45:00;;;;;;;;;;;;;;;;;;5038508;28;20505;-55
2022/05/19 00:47:43;;;;;;;7.25;3.08;;;;;;;;;;5039078;28;19964;-56
2022/05/19 00:50:16;;;;;;;5.68;2.95;;;;;;;;;;5040351;28;20083;-56
2022/05/19 00:52:51;;;;;;;6.47;3.17;;;;;;;;;;5038419;28;20069;-55
2022/05/19 00:55:20;;;;;;;6.05;3.17;;;;;;;;;;5040889;28;20172;-54
2022/05/19 00:57:51;;;;;;;5.75;2.88;;;;;;;;;;5040448;28;20461;-56
2022/05/19 01:00:26;;;;;;;10.48;3.28;;;;;;;;;;5038394;28;20084;-55
2022/05/19 01:02:54;;;;;;;8.52;3.15;;;;;;;;;;5038424;28;20060;-45
2022/05/19 01:05:30;;;;;;;8.30;3.10;;;;;;;;;;5039245;28;20072;-53
2022/05/19 01:08:12;;;;;;;14.05;3.60;;;;;;;;;;5037144;28;20045;-56
2022/05/19 01:10:39;;;;;;;13.07;3.45;;;;;;;;;;5041126;28;20075;-55
2022/05/19 01:13:14;;;;;;;12.82;2.97;;;;;;;;;;5041381;28;20142;-54
2022/05/19 01:15:43;;;;;;;5.35;3.00;;;;;;;;;;5038110;28;20094;-55
2022/05/19 01:18:11;;;;;;;9.43;3.15;;;;;;;;;;5038513;28;20072;-55
2022/05/19 01:20:44;;;;;;;8.45;2.83;;;;;;;;;;5037694;28;20518;-46
2022/05/19 01:23:24;;;;;;;8.77;3.42;;;;;;;;;;5041697;28;20532;-51
2022/05/19 01:26:00;;;;;;;6.60;2.75;;;;;;;;;;5036746;28;20497;-51
2022/05/19 01:28:27;;;;;;;11.88;3.15;;;;;;;;;;5038183;28;20075;-51
2022/05/19 01:30:54;;;;;;;13.43;3.65;;;;;;;;;;5037173;28;20096;-51
2022/05/19 01:33:33;;;;;;;19.58;3.47;;;;;;;;;;5037392;28;20720;-52
2022/05/19 01:35:59;;;;;;;8.35;3.28;;;;;;;;;;5040148;28;20087;-50
2022/05/19 01:38:27;;;;;;;10.57;2.95;;;;;;;;;;5034296;28;20079;-52
2022/05/19 01:41:19;;;;;;;5.32;3.08;;;;;;;;;;5035757;28;20079;-49
2022/05/19 01:43:53;;;;;;;5.72;3.05;;;;;;;;;;5036302;28;20083;-47
2022/05/19 01:46:34;;;;;;;5.78;2.65;;;;;;;;;;5035843;28;20073;-48
2022/05/19 01:49:11;;;;;;;8.48;2.92;;;;;;;;;;5035631;28;20091;-48
2022/05/19 01:52:03;;;;;;;9.77;3.35;;;;;;;;;;5036866;28;20080;-49
2022/05/19 01:54:36;;;;;;;9.60;2.85;;;;;;;;;;5040637;28;20095;-51
2022/05/19 01:57:21;;;;;;;8.30;2.90;;;;;;;;;;5038189;28;20045;-49
2022/05/19 01:59:57;;;;;;;5.57;2.58;;;;;;;;;;5038929;28;20098;-53
2022/05/19 02:02:35;;;;;;;14.13;3.17;;;;;;;;;;5041114;28;20080;-54
2022/05/19 02:05:07;;;;;;;6.47;2.95;;;;;;;;;;5040402;28;20122;-56
2022/05/19 02:07:43;;;;;;;10.50;3.42;;;;;;;;;;5038352;28;20045;-56
2022/05/19 02:10:11;;;;;;;6.22;2.97;;;;;;;;;;5040122;28;20136;-50
2022/05/19 02:12:38;;;;;;;12.70;3.08;;;;;;;;;;5036828;28;20073;-50
2022/05/19 02:15:13;;;;;;;8.63;2.83;;;;;;;;;;5038555;28;20288;-53
2022/05/19 02:17:42;;;;;;;7.00;3.22;;;;;;;;;;5040854;28;20041;-44
2022/05/19 02:20:10;;;;;;;11.38;3.25;;;;;;;;;;5037550;28;20077;-50
2022/05/19 02:22:43;;;;;;;6.53;3.30;;;;;;;;;;5034783;28;20096;-55
2022/05/19 02:25:39;;;;;;;10.02;3.10;;;;;;;;;;5036375;28;20092;-53
2022/05/19 02:28:21;;;;;;;7.05;3.03;;;;;;;;;;5022241;28;20501;-52
2022/05/19 02:30:47;;;;;;;8.20;3.20;;;;;;;;;;5035238;28;20084;-53
2022/05/19 02:33:34;;;;;;;9.43;3.08;;;;;;;;;;5039581;28;20088;-54
2022/05/19 02:36:08;;;;;;;5.85;2.83;;;;;;;;;;5037728;28;20070;-55
2022/05/19 02:38:43;;;;;;;10.02;3.70;;;;;;;;;;5036129;28;20579;-55
2022/05/19 02:41:10;;;;;;;4.95;3.20;;;;;;;;;;5037211;28;20076;-48
2022/05/19 02:43:36;;;;;;;9.73;3.55;;;;;;;;;;5036348;28;20076;-52
2022/05/19 02:46:10;;;;;;;10.43;3.80;;;;;;;;;;5037374;28;20095;-52
2022/05/19 02:48:37;;;;;;;10.68;3.35;;;;;;;;;;5037070;28;20484;-50
2022/05/19 02:51:03;;;;;;;7.40;3.08;;;;;;;;;;5039973;28;20185;-49
2022/05/19 02:53:37;;;;;;;7.53;3.03;;;;;;;;;;5038901;28;20567;-50
2022/05/19 02:56:03;;;;;;;5.35;2.85;;;;;;;;;;5036242;28;20079;-56
2022/05/19 02:58:30;;;;;;;10.13;3.90;;;;;;;;;;5035336;28;20053;-52
2022/05/19 03:01:06;;;;;;;4.80;3.15;;;;;;;;;;5035478;28;20139;-47
2022/05/19 03:03:33;;;;;;;9.40;2.90;;;;;;;;;;5037846;28;20142;-52
2022/05/19 03:05:59;;;;;;;7.85;3.33;;;;;;;;;;5039329;28;20084;-48
2022/05/19 03:08:32;;;;;;;6.15;3.00;;;;;;;;;;5037358;28;20778;-52
2022/05/19 03:10:58;;;;;;;4.45;3.00;;;;;;;;;;5035960;28;20080;-52
2022/05/19 03:13:24;;;;;;;5.20;3.30;;;;;;;;;;5035210;28;20515;-50
2022/05/19 03:15:58;;;;;;;5.50;3.58;;;;;;;;;;5037668;28;20085;-53
2022/05/19 03:18:24;;;;;;;8.30;3.70;;;;;;;;;;5035415;28;20048;-54
2022/05/19 03:20:51;;;;;;;7.20;3.15;;;;;;;;;;5035355;28;20041;-51
2022/05/19 03:23:24;;;;;;;6.15;3.42;;;;;;;;;;5035488;28;20118;-54
2022/05/19 03:25:50;;;;;;;6.30;3.28;;;;;;;;;;5036613;28;20085;-52
2022/05/19 03:28:16;;;;;;;9.40;3.42;;;;;;;;;;5037926;28;20496;-53
2022/05/19 03:30:50;;;;;;;7.10;3.58;;;;;;;;;;5038806;28;20081;-55
2022/05/19 03:33:22;;;;;;;8.88;3.28;;;;;;;;;;5036381;28;20143;-49
2022/05/19 03:35:59;;;;;;;6.75;3.28;;;;;;;;;;5019457;28;20114;-50
2022/05/19 03:38:33;;;;;;;7.00;3.25;;;;;;;;;;5034907;28;20050;-56
2022/05/19 03:40:59;;;;;;;6.13;3.28;;;;;;;;;;5037485;28;20084;-56
2022/05/19 03:43:25;;;;;;;7.15;3.53;;;;;;;;;;5035092;28;20045;-56
2022/05/19 03:46:02;;;;;;;6.65;3.25;;;;;;;;;;5035074;28;20053;-57
2022/05/19 03:48:32;;;;;;;6.63;3.63;;;;;;;;;;5032233;28;20132;-56
2022/05/19 03:51:10;;;;;;;4.68;3.00;;;;;;;;;;5034810;28;20069;-55
2022/05/19 03:53:37;;;;;;;5.18;3.25;;;;;;;;;;5040241;28;20130;-49
2022/05/19 03:56:04;;;;;;;4.68;3.15;;;;;;;;;;5042716;28;20073;-51
2022/05/19 03:58:38;;;;;;;6.43;3.22;;;;;;;;;;5041276;28;20077;-45
2022/05/19 04:01:05;;;;;;;10.95;3.10;;;;;;;;;;5042225;28;20053;-48
2022/05/19 04:03:31;;;;;;;6.40;3.70;;;;;;;;;;5039713;28;20130;-47
2022/05/19 04:06:05;;;;;;;6.20;3.70;;;;;;;;;;5039326;28;20049;-44
2022/05/19 04:08:31;;;;;;;6.37;3.70;;;;;;;;;;5042047;28;20073;-51
2022/05/19 04:10:58;;;;;;;9.18;3.50;;;;;;;;;;5038252;28;20053;-51
2022/05/19 04:13:32;;;;;;;7.72;3.22;;;;;;;;;;5033084;28;20068;-46
2022/05/19 04:15:58;;;;;;;5.72;3.70;;;;;;;;;;5035611;28;20089;-56
2022/05/19 04:18:24;;;;;;;8.32;3.50;;;;;;;;;;5038695;28;20046;-55
2022/05/19 04:20:58;;;;;;;6.03;3.22;;;;;;;;;;5041776;28;20088;-55
2022/05/19 04:23:24;;;;;;;6.85;3.40;;;;;;;;;;5040244;28;20087;-55
2022/05/19 04:25:50;;;;;;;5.95;2.95;;;;;;;;;;5038401;28;20497;-56
2022/05/19 04:28:24;;;;;;;6.18;3.58;;;;;;;;;;5037910;28;20540;-55
2022/05/19 04:30:50;;;;;;;6.28;3.25;;;;;;;;;;5038727;28;20124;-56
2022/05/19 04:33:17;;;;;;;6.68;3.15;;;;;;;;;;5041317;28;20049;-53
2022/05/19 04:35:50;;;;;;;7.20;3.33;;;;;;;;;;5039854;28;20628;-51
2022/05/19 04:38:17;;;;;;;5.63;3.05;;;;;;;;;;5038699;28;20460;-48
2022/05/19 04:40:48;;;;;;;7.07;3.28;;;;;;;;;;5037616;28;20103;-52
2022/05/19 04:43:22;;;;;;;5.47;3.47;;;;;;;;;;5037657;28;20084;-53
2022/05/19 04:45:50;;;;;;;6.05;3.00;;;;;;;;;;5038409;28;20053;-48
2022/05/19 04:48:16;;;;;;;7.43;3.33;;;;;;;;;;5041410;28;20215;-46
2022/05/19 04:50:51;;;;;;;6.05;3.05;;;;;;;;;;5040958;28;20041;-51
2022/05/19 04:53:17;;;;;;;;;;;;;;;;;;5038672;28;20186;-53
2022/05/19 04:55:44;;;;;;;10.00;3.55;;;;;;;;;;5037316;28;19960;-54
2022/05/19 04:58:17;;;;;;;7.20;3.13;;;;;;;;;;5035452;28;20111;-53
2022/05/19 05:00:43;;;;;;;10.50;3.28;;;;;;;;;;5032264;28;20077;-52
2022/05/19 05:03:09;;;;;;;5.97;3.35;;;;;;;;;;5038431;28;20076;-55
2022/05/19 05:05:43;;;;;;;5.75;2.88;;;;;;;;;;5038022;28;20475;-53
2022/05/19 05:08:09;;;;;;;13.32;3.58;;;;;;;;;;5040518;28;20091;-53
2022/05/19 05:10:35;;;;;;;6.05;3.20;;;;;;;;;;5039319;28;20527;-54
2022/05/19 05:13:10;;;;;;;7.07;3.15;;;;;;;;;;5037765;28;20045;-50
2022/05/19 05:15:38;;;;;;;7.72;3.22;;;;;;;;;;5036573;28;20083;-48
2022/05/19 05:18:05;;;;;;;13.35;3.08;;;;;;;;;;5036308;28;20103;-45
2022/05/19 05:20:40;;;;;;;6.35;2.78;;;;;;;;;;5037855;28;20057;-49
2022/05/19 05:23:06;;;;;;;5.75;3.40;;;;;;;;;;5038473;28;20080;-49
2022/05/19 05:25:33;;;;;;;9.57;3.40;;;;;;;;;;5041137;28;20080;-48
2022/05/19 05:28:06;;;;;;;6.10;3.00;;;;;;;;;;5039473;28;20077;-53
2022/05/19 05:30:32;;;;;;;6.72;3.10;;;;;;;;;;5036682;28;20053;-52
2022/05/19 05:33:09;;;;;;;3.78;3.03;;;;;;;;;;5039309;28;20085;-55
2022/05/19 05:35:48;;;;;;;11.63;3.10;;;;;;;;;;5038676;28;20080;-54
2022/05/19 05:38:15;;;;;;;8.25;3.25;;;;;;;;;;5038009;28;20496;-57
2022/05/19 05:40:41;;;;;;;6.30;2.95;;;;;;;;;;5037013;28;20544;-55
2022/05/19 05:43:18;;;;;;;9.23;3.40;;;;;;;;;;5038723;28;20774;-55
2022/05/19 05:45:46;;;;;;;4.57;3.03;;;;;;;;;;5041892;28;20061;-55
2022/05/19 05:48:13;;;;;;;7.68;2.80;;;;;;;;;;5038477;28;20099;-50
2022/05/19 05:50:46;;;;;;;7.40;3.10;;;;;;;;;;5037908;28;20081;-54
2022/05/19 05:53:12;;;;;;;7.82;2.75;;;;;;;;;;5035950;28;20111;-49
2022/05/19 05:55:41;;;;;;;7.28;3.10;;;;;;;;;;5034978;28;20508;-48
2022/05/19 05:58:15;;;;;;;11.68;3.47;;;;;;;;;;5036485;28;20436;-53
2022/05/19 06:00:41;;;;;;;4.85;2.70;;;;;;;;;;5037703;28;20128;-55
2022/05/19 06:03:07;;;;;;;4.45;2.92;;;;;;;;;;5038192;28;20089;-55
2022/05/19 06:05:42;;;;;;;5.40;2.80;;;;;;;;;;5037044;28;20064;-56
2022/05/19 06:08:08;;;;;;;;;;;;;;;;;;5036215;28;20107;-47
2022/05/19 06:10:35;;;;;;;5.78;2.70;;;;;;;;;;5034395;28;19976;-52
2022/05/19 06:13:09;;;;;;;6.85;2.65;;;;;;;;;;5036997;28;20065;-52
2022/05/19 06:15:35;;;;;;;4.35;2.80;;;;;;;;;;5037844;28;20103;-51
2022/05/19 06:18:02;;;;;;;5.83;2.47;;;;;;;;;;5036245;28;20644;-53
2022/05/19 06:20:36;;;;;;;5.53;3.10;;;;;;;;;;5035628;28;20092;-49
2022/05/19 06:23:03;;;;;;;6.22;3.10;;;;;;;;;;5034165;28;20867;-47
2022/05/19 06:25:30;;;;;;;5.88;3.08;;;;;;;;;;5035056;28;20106;-56
2022/05/19 06:28:03;;;;;;;6.55;2.80;;;;;;;;;;5034400;28;20073;-57
2022/05/19 06:30:30;;;;;;;7.15;3.08;;;;;;;;;;5037442;28;20491;-56
2022/05/19 06:32:57;;;;;;;7.60;2.88;;;;;;;;;;5035903;28;20103;-57
2022/05/19 06:35:32;;;;;;;7.97;2.92;;;;;;;;;;5035546;28;20111;-54
2022/05/19 06:37:59;;;;;;;7.70;2.70;;;;;;;;;;5036615;28;20056;-55
2022/05/19 06:40:27;;;;;;;5.47;2.83;;;;;;;;;;5038639;28;20057;-56
2022/05/19 06:43:01;;;;;;;6.80;2.65;;;;;;;;;;5038911;28;20444;-55
2022/05/19 06:45:29;;;;;;;7.32;2.97;;;;;;;;;;5037776;28;20065;-52
2022/05/19 06:47:56;;;;;;;11.13;3.35;;;;;;;;;;5027810;28;20087;-53
2022/05/19 06:50:30;;;;;;;8.23;3.22;;;;;;;;;;5030090;28;20099;-49
2022/05/19 06:53:01;;;;;;;7.27;3.33;;;;;;;;;;5038844;28;20044;-46
2022/05/19 06:55:28;;;;;;;9.20;2.60;;;;;;;;;;5037607;28;20496;-51
2022/05/19 06:58:01;;;;;;;6.65;2.60;;;;;;;;;;5037198;28;20057;-51
2022/05/19 07:00:28;;;;;;;9.00;2.70;;;;;;;;;;5036584;28;20053;-49
2022/05/19 07:02:56;;;;;;;5.10;3.13;;;;;;;;;;5036058;28;20049;-51
2022/05/19 07:05:32;;;;;;;6.22;3.13;;;;;;;;;;5037534;28;20489;-50
2022/05/19 07:07:59;;;;;;;4.15;2.70;;;;;;;;;;5036693;28;20045;-56
2022/05/19 07:10:26;;;;;;;7.80;3.42;;;;;;;;;;5036653;28;20748;-56
2022/05/19 07:13:00;;;;;;;6.15;2.45;;;;;;;;;;5034426;28;20471;-56
2022/05/19 07:15:29;;;;;;;6.13;2.88;;;;;;;;;;5034155;28;20111;-53
2022/05/19 07:17:56;;;;;;;7.68;3.10;;;;;;;;;;5035447;28;20049;-56
2022/05/19 07:20:44;;;;;;;6.53;2.70;;;;;;;;;;5034412;28;20084;-56
2022/05/19 07:23:14;;;;;;;6.45;2.90;;;;;;;;;;5037716;28;20045;-53
2022/05/19 07:25:47;;;;;;;5.47;2.90;;;;;;;;;;5039667;28;20474;-53
2022/05/19 07:28:14;;;;;;;4.77;2.90;;;;;;;;;;5038413;28;20077;-46
2022/05/19 07:30:41;;;;;;;4.67;2.60;;;;;;;;;;5044216;28;20366;-51
2022/05/19 07:33:21;;;;;;;7.13;2.90;;;;;;;;;;5040546;27;20059;-50
2022/05/19 07:35:50;;;;;;;9.07;3.00;;;;;;;;;;5041216;28;20110;-47
2022/05/19 07:38:24;;;;;;;7.85;3.20;;;;;;;;;;5043131;28;20072;-49
2022/05/19 07:40:54;;;;;;;8.32;3.13;;;;;;;;;;5040400;28;20089;-48
2022/05/19 07:43:35;;;;;;;8.40;2.88;;;;;;;;;;5042109;28;20076;-57
2022/05/19 07:46:13;;;;;;;8.23;3.28;;;;;;;;;;5041013;28;20107;-57
2022/05/19 07:48:40;;;;;;;8.77;3.47;;;;;;;;;;5037646;28;20057;-56
2022/05/19 07:51:06;;;;;;;6.63;2.97;;;;;;;;;;5043678;28;20142;-57
2022/05/19 07:53:41;;;;;;;9.27;3.63;;;;;;;;;;5039637;28;20099;-57
2022/05/19 07:56:07;;;;;;;5.32;2.78;;;;;;;;;;5041023;28;20076;-55
2022/05/19 07:58:33;;;;;;;7.78;3.08;;;;;;;;;;5038783;28;20077;-59
2022/05/19 08:01:07;;;;;;;6.97;3.20;;;;;;;;;;5040896;28;20069;-52
2022/05/19 08:03:34;;;;;;;5.68;2.67;;;;;;;;;;5038154;28;20052;-52
2022/05/19 08:06:01;;;;;;;6.18;3.08;;;;;;;;;;5040223;28;20045;-56
2022/05/19 08:08:34;;;;;;;7.38;3.80;;;;;;;;;;5040683;28;20139;-58
2022/05/19 08:11:01;;;;;;;5.05;3.22;;;;;;;;;;5039770;28;20499;-56
2022/05/19 08:16:19;;;;;;;7.32;3.28;;;;;;;;;;5039784;28;20681;-57
2022/05/19 08:18:46;;;;;;;9.88;3.42;;;;;;;;;;5040992;28;20049;-56
2022/05/19 08:21:12;;;;;;;6.93;3.05;;;;;;;;;;5024627;28;20091;-52
2022/05/19 08:23:47;;;;;;;9.35;3.28;;;;;;;;;;5042132;28;20103;-56
2022/05/19 08:26:14;;;;;;;9.80;4.35;;;;;;;;;;5038499;28;20084;-56
2022/05/19 08:28:42;;;;;;;10.68;4.20;;;;;;;;;;5039225;28;20463;-54
2022/05/19 08:31:19;;;;;;;8.07;3.90;;;;;;;;;;5042548;28;20057;-58
2022/05/19 08:33:54;;;;;;;6.20;4.10;;;;;;;;;;5040758;28;20065;-57
2022/05/19 08:36:28;;;;;;;8.45;4.25;;;;;;;;;;5038940;28;20088;-57
2022/05/19 08:38:54;;;;;;;9.40;3.60;;;;;;;;;;5037109;28;20049;-47
2022/05/19 08:41:30;;;;;;;8.60;3.97;;;;;;;;;;5040381;28;20080;-51
2022/05/19 08:44:36;;;;;;;7.38;4.00;;;;;;;;;;5038723;28;20081;-52
2022/05/19 08:47:04;;;;;;;10.38;4.75;;;;;;;;;;5008125;28;20080;-49
2022/05/19 08:49:39;;;;;;;9.25;3.75;;;;;;;;;;5039699;28;20533;-51
2022/05/19 08:52:25;;;;;;;7.22;3.80;;;;;;;;;;5036280;28;20551;-51
2022/05/19 08:54:59;;;;;;;8.88;3.97;;;;;;;;;;5040582;28;20432;-48
2022/05/19 08:57:35;;;;;;;8.87;3.90;;;;;;;;;;5040064;28;20128;-56
2022/05/19 09:00:14;;;;;;;6.97;4.03;;;;;;;;;;5041320;28;20132;-49
2022/05/19 09:02:41;;;;;;;7.30;3.72;;;;;;;;;;5037485;28;20081;-54
2022/05/19 09:05:26;;;;;;;12.48;3.92;;;;;;;;;;5038988;28;20085;-53
2022/05/19 09:08:02;;;;;;;9.25;3.42;;;;;;;;;;5038448;28;20099;-52
2022/05/19 09:10:37;;;;;;;11.50;4.47;;;;;;;;;;5039521;28;20080;-54
2022/05/19 09:13:10;;;;;;;5.45;3.70;;;;;;;;;;5038835;28;20041;-54
2022/05/19 09:15:37;;;;;;;10.40;4.07;;;;;;;;;;5038057;28;20131;-56
2022/05/19 09:18:04;;;;;;;8.93;4.28;;;;;;;;;;5037908;28;20056;-46
2022/05/19 09:20:46;;;;;;;8.60;4.03;;;;;;;;;;5036317;28;20126;-58
2022/05/19 09:23:13;;;;;;;7.32;3.92;;;;;;;;;;5039202;28;20088;-59
2022/05/19 09:25:54;;;;;;;10.93;4.90;;;;;;;;;;5040211;28;20092;-59
2022/05/19 09:28:20;;;;;;;7.97;4.25;;;;;;;;;;5041465;28;20068;-59
2022/05/19 09:30:55;;;;;;;9.23;4.38;;;;;;;;;;5037664;28;20094;-59
2022/05/19 09:33:30;;;;;;;8.18;4.00;;;;;;;;;;5041036;28;20092;-58
2022/05/19 09:36:11;;;;;;;15.57;5.18;;;;;;;;;;5036766;28;20145;-55
2022/05/19 09:38:48;;;;;;;11.02;4.53;;;;;;;;;;5039988;28;20048;-53
2022/05/19 09:41:33;;;;;;;11.70;4.18;;;;;;;;;;5037348;28;20092;-58
2022/05/19 09:44:00;;;;;;;;;;;;;;;;;;5036315;28;20602;-57
2022/05/19 09:46:47;;;;;;;10.77;3.70;;;;;;;;;;5037063;28;19925;-58
2022/05/19 09:49:28;;;;;;;11.10;4.15;;;;;;;;;;5030076;28;20049;-57
2022/05/19 09:52:03;;;;;;;4.68;3.63;;;;;;;;;;5035802;28;20461;-57
2022/05/19 09:54:31;;;;;;;8.07;3.95;;;;;;;;;;5037184;28;20122;-56
2022/05/19 09:57:08;;;;;;;6.85;3.83;;;;;;;;;;5038614;28;20111;-52
2022/05/19 09:59:45;;;;;;;13.40;3.80;;;;;;;;;;5038194;28;20049;-58
2022/05/19 10:02:25;;;;;;;9.20;3.97;;;;;;;;;;5036882;28;20072;-58
2022/05/19 10:05:39;;;;;;;8.23;3.55;;;;;;;;;;5036067;28;20048;-57
2022/05/19 10:08:12;;;;;;;7.38;3.40;;;;;;;;;;5039488;28;20076;-56
2022/05/19 10:10:59;;;;;;;7.85;3.38;;;;;;;;;;5038033;28;20091;-55
2022/05/19 10:13:34;;;;;;;5.90;3.38;;;;;;;;;;5036081;28;20081;-51
2022/05/19 10:16:27;;;;;;;9.13;3.28;;;;;;;;;;5021643;28;20132;-49
2022/05/19 10:19:05;;;;;;;7.05;3.60;;;;;;;;;;5039752;28;20083;-46
2022/05/19 10:21:59;;;;;;;11.20;4.10;;;;;;;;;;5036535;28;20119;-48
2022/05/19 10:24:34;;;;;;;10.10;3.55;;;;;;;;;;5039278;28;20136;-50
2022/05/19 10:33:40;;;;;;;7.90;3.80;;;;;;;;;;5038711;28;20506;-49
2022/05/19 10:36:17;;;;;;;8.95;3.95;;;;;;;;;;5036229;28;20094;-51
2022/05/19 10:39:00;;;;;;;11.85;3.90;;;;;;;;;;5034093;28;20271;-57
2022/05/19 10:41:37;;;;;;;6.53;4.15;;;;;;;;;;5036877;28;20072;-57
2022/05/19 10:44:29;;;;;;;9.82;4.07;;;;;;;;;;5035407;28;20049;-57
2022/05/19 10:46:56;;;;;;;7.20;4.10;;;;;;;;;;5036207;28;20077;-57
2022/05/19 10:49:49;;;;;;;8.35;4.13;;;;;;;;;;5036556;28;20072;-58
2022/05/19 10:52:36;;;;;;;7.05;3.58;;;;;;;;;;5037028;28;20052;-47
2022/05/19 10:55:32;;;;;;;9.35;4.03;;;;;;;;;;5036881;28;20115;-44
2022/05/19 10:58:15;;;;;;;11.77;4.95;;;;;;;;;;5040255;28;20115;-58
2022/05/19 11:00:57;;;;;;;14.48;4.47;;;;;;;;;;5039757;28;20053;-58
2022/05/19 11:03:42;;;;;;;10.52;4.63;;;;;;;;;;5039419;28;20451;-57
2022/05/19 11:06:15;;;;;;;10.68;4.30;;;;;;;;;;5044201;28;20069;-58
2022/05/19 11:09:00;;;;;;;6.50;4.30;;;;;;;;;;5039604;28;20085;-58
2022/05/19 11:11:42;;;;;;;13.55;4.35;;;;;;;;;;5037113;28;20080;-50
2022/05/19 11:14:15;;;;;;;15.73;5.60;;;;;;;;;;5039792;28;20064;-51
2022/05/19 11:16:51;;;;;;;7.38;4.72;;;;;;;;;;5040108;28;20093;-48
2022/05/19 11:19:23;;;;;;;8.68;4.63;;;;;;;;;;5039621;28;20084;-47
2022/05/19 11:22:17;;;;;;;13.93;5.60;;;;;;;;;;5041208;28;20053;-46
2022/05/19 11:27:40;;;;;;;9.27;5.63;;;;;;;;;;5039230;28;20044;-48
2022/05/19 11:30:09;;;;;;;10.82;6.32;;;;;;;;;;5040195;28;20053;-49
2022/05/19 11:32:36;;;;;;;12.45;6.20;;;;;;;;;;5040194;28;20085;-57
2022/05/19 11:35:25;;;;;;;10.73;6.65;;;;;;;;;;5041629;28;20073;-48
2022/05/19 11:37:52;;;;;;;11.40;5.97;;;;;;;;;;5043408;28;20110;-48
2022/05/19 11:40:32;;;;;;;11.05;5.32;;;;;;;;;;5038247;28;20499;-47
2022/05/19 11:43:06;;;;;;;13.57;6.00;;;;;;;;;;5038579;28;20088;-50
2022/05/19 11:45:43;;;;;;;15.10;6.97;;;;;;;;;;5041728;28;20179;-45
2022/05/19 11:57:29;;;;;;;20.63;5.78;;;;;;;;;;5037689;28;20052;-51
2022/05/19 12:00:00;;;;;;;12.43;6.45;;;;;;;;;;5040500;28;20045;-52
2022/05/19 12:02:37;;;;;;;11.55;6.18;;;;;;;;;;5038884;28;20057;-51
2022/05/19 12:05:10;;;;;;;15.40;5.68;;;;;;;;;;5038847;28;20448;-52
2022/05/19 12:07:54;;;;;;;13.18;7.03;;;;;;;;;;5041974;28;20049;-51
2022/05/19 12:10:40;;;;;;;16.58;8.82;;;;;;;;;;5038747;28;20566;-57
2022/05/19 12:13:16;;;;;;;14.27;8.27;;;;;;;;;;5040291;28;20580;-50
2022/05/19 12:15:51;;;;;;;15.82;8.23;;;;;;;;;;5040183;28;20517;-50
2022/05/19 12:18:24;;;;;;;10.75;6.45;;;;;;;;;;5039084;28;20089;-47
2022/05/19 12:20:51;;;;;;;11.63;6.73;;;;;;;;;;5038630;28;20099;-49
2022/05/19 12:23:17;;;;;;;13.03;6.20;;;;;;;;;;5041407;28;20049;-51
2022/05/19 12:25:52;;;;;;;11.77;6.95;;;;;;;;;;5039304;28;20656;-51
2022/05/19 12:28:18;;;;;;;16.73;6.95;;;;;;;;;;5041509;28;20085;-54
2022/05/19 12:34:01;;;;;;;16.48;7.93;;;;;;;;;;5029265;28;20050;-56
2022/05/19 12:36:44;;;;;;;14.33;8.03;;;;;;;;;;5020010;28;20081;-56
2022/05/19 12:39:18;;;;;;;13.60;7.78;;;;;;;;;;5019436;28;20057;-57
2022/05/19 12:41:51;;;;;;;11.82;7.85;;;;;;;;;;5023479;28;20115;-56
2022/05/19 12:44:35;;;;;;;17.17;8.20;;;;;;;;;;5017291;28;20049;-57
2022/05/19 12:47:10;;;;;;;14.98;7.80;;;;;;;;;;5016071;28;20081;-57
2022/05/19 12:49:37;;;;;;;15.75;8.60;;;;;;;;;;5017620;28;20108;-48
2022/05/19 12:52:14;;;;;;;18.40;8.77;;;;;;;;;;5020234;28;20050;-57
2022/05/19 12:55:05;;;;;;;24.10;11.05;;;;;;;;;;5018835;28;20115;-56
2022/05/19 12:57:32;;;;;;;14.38;9.23;;;;;;;;;;5016432;28;20088;-57
2022/05/19 13:00:10;;;;;;;12.30;8.02;;;;;;;;;;5020317;28;20263;-57
2022/05/19 13:02:46;;;;;;;19.15;8.18;;;;;;;;;;5017785;28;20049;-57
2022/05/19 13:05:21;;;;;;;16.70;7.65;;;;;;;;;;5018152;28;20056;-57
2022/05/19 13:07:57;;;;;;;18.02;8.60;;;;;;;;;;5019219;28;20046;-51
2022/05/19 13:10:42;;;;;;;16.85;9.82;;;;;;;;;;5022794;28;20073;-51
2022/05/19 13:13:27;;;;;;;17.52;9.73;;;;;;;;;;5018623;28;20089;-46
2022/05/19 13:16:10;;;;;;;16.33;9.18;;;;;;;;;;5019934;28;20128;-47
2022/05/19 13:18:39;;;;;;;18.67;11.05;;;;;;;;;;5013604;28;20130;-50
2022/05/19 13:21:23;;;;;;;13.85;10.50;;;;;;;;;;5002044;28;20164;-50
2022/05/19 13:23:51;;;;;;;15.85;11.77;;;;;;;;;;5018023;28;20092;-50
2022/05/19 13:26:26;;;;;;;19.00;11.65;;;;;;;;;;5015671;28;20046;-57
2022/05/19 13:31:52;;;;;;;20.17;13.65;;;;;;;;;;5016722;28;20545;-49
2022/05/19 13:34:25;;;;;;;23.33;14.43;;;;;;;;;;5020419;28;20088;-45
2022/05/19 13:37:00;;;;;;;20.73;15.05;;;;;;;;;;5019231;28;20104;-47
2022/05/19 13:39:27;;;;;;;25.35;16.33;;;;;;;;;;5018935;28;20100;-50
2022/05/19 13:42:06;;;;;;;26.40;15.15;;;;;;;;;;5018712;28;20049;-50
2022/05/19 13:44:47;;;;;;;20.98;13.00;;;;;;;;;;5015787;28;20533;-50
2022/05/19 13:47:21;;;;;;;25.00;14.63;;;;;;;;;;5017599;28;20080;-47
2022/05/19 13:49:56;;;;;;;23.25;14.95;;;;;;;;;;5017419;28;20046;-48
2022/05/19 13:52:24;;;;;;;19.90;13.07;;;;;;;;;;5018713;28;20119;-46
2022/05/19 13:54:51;;;;;;;19.30;12.85;;;;;;;;;;5019540;28;20532;-43
2022/05/19 13:57:29;;;;;;;22.48;13.10;;;;;;;;;;5009980;28;20081;-49
2022/05/19 13:59:58;;;;;;;19.83;10.38;;;;;;;;;;5014607;28;20045;-47
2022/05/19 14:02:32;;;;;;;19.38;11.70;;;;;;;;;;5016561;28;20091;-47
2022/05/19 14:04:59;;;;;;;17.98;11.82;;;;;;;;;;5018100;28;20042;-53
2022/05/19 14:07:26;;;;;;;21.30;13.70;;;;;;;;;;5010475;28;20061;-56
2022/05/19 14:10:01;;;;;;;19.05;13.52;;;;;;;;;;5017754;28;20054;-56
2022/05/19 14:12:34;;;;;;;25.92;16.08;;;;;;;;;;5019600;28;20061;-55
2022/05/19 14:15:10;;;;;;;21.63;15.50;;;;;;;;;;5017355;28;20078;-55
2022/05/19 14:18:03;;;;;;;25.60;15.80;;;;;;;;;;5019373;28;20079;-54
2022/05/19 14:20:42;;;;;;;28.30;17.17;;;;;;;;;;5013754;28;20103;-54
2022/05/19 14:23:11;;;;;;;24.60;17.52;;;;;;;;;;5018280;28;20077;-54
2022/05/19 14:25:45;;;;;;;27.40;18.10;;;;;;;;;;5015087;28;20068;-53
2022/05/19 14:28:41;;;;;;;28.10;18.17;;;;;;;;;;5018283;28;20135;-55
2022/05/19 14:31:41;;;;;;;32.92;18.98;;;;;;;;;;5006834;28;20073;-56
2022/05/19 14:34:15;;;;;;;28.80;18.25;;;;;;;;;;5004776;28;20067;-54
2022/05/19 14:37:07;;;;;;;37.95;21.65;;;;;;;;;;5039674;28;20106;-48
2022/05/19 14:39:36;;;;;;;31.85;19.80;;;;;;;;;;5034820;28;20508;-53
2022/05/19 14:44:57;;;;;;;30.63;21.05;;;;;;;;;;5032346;28;20045;-45
2022/05/19 14:47:39;;;;;;;38.50;21.48;;;;;;;;;;5032198;28;20107;-44
2022/05/19 14:50:08;;;;;;;40.25;22.77;;;;;;;;;;5033518;28;20162;-50
2022/05/19 14:52:44;;;;;;;37.10;21.23;;;;;;;;;;5035027;28;20087;-44
2022/05/19 14:55:30;;;;;;;39.42;23.75;;;;;;;;;;5039397;28;20096;-46
2022/05/19 14:58:08;;;;;;;39.67;23.52;;;;;;;;;;5022593;28;20456;-46
2022/05/19 15:00:34;;;;;;;37.53;22.52;;;;;;;;;;5034727;28;20463;-50
2022/05/19 15:03:01;;;;;;;37.60;24.60;;;;;;;;;;5036134;28;20059;-56
2022/05/19 15:05:36;;;;;;;39.92;24.63;;;;;;;;;;5034711;28;20139;-54
2022/05/19 15:08:06;;;;;;;39.83;25.13;;;;;;;;;;5037319;28;20088;-54
2022/05/19 15:10:33;;;;;;;42.28;24.63;;;;;;;;;;5033983;28;20056;-56
2022/05/19 15:13:06;;;;;;;43.55;26.80;;;;;;;;;;5032140;28;20053;-56
2022/05/19 15:15:34;;;;;;;44.60;25.52;;;;;;;;;;5038098;28;20093;-56
2022/05/19 15:18:00;;;;;;;47.45;27.35;;;;;;;;;;5031845;28;20081;-56
2022/05/19 15:20:42;;;;;;;40.28;24.27;;;;;;;;;;5034495;28;20045;-45
2022/05/19 15:23:10;;;;;;;43.88;26.05;;;;;;;;;;5032702;28;20650;-57
2022/05/19 15:25:44;;;;;;;40.30;24.17;;;;;;;;;;5034646;28;20049;-56
2022/05/19 15:28:12;;;;;;;41.05;26.20;;;;;;;;;;5035399;28;20100;-55
2022/05/19 15:30:39;;;;;;;38.90;23.83;;;;;;;;;;5031536;28;20092;-56
2022/05/19 15:33:18;;;;;;;44.45;24.17;;;;;;;;;;5033690;28;20147;-54
2022/05/19 15:35:51;;;;;;;46.90;26.27;;;;;;;;;;5030099;28;20509;-55
2022/05/19 15:38:36;;;;;;;45.40;25.67;;;;;;;;;;5032583;28;20127;-49
2022/05/19 15:41:03;;;;;;;48.35;25.55;;;;;;;;;;5032505;28;20153;-49
2022/05/19 15:43:36;;;;;;;42.85;23.92;;;;;;;;;;5033196;28;20126;-57
2022/05/19 15:46:02;;;;;;;43.97;23.42;;;;;;;;;;5033581;28;20211;-57